createdAt,value
2023-05-17T00:11:49.133Z,32.377
2023-05-17T00:26:51.196Z,34.141
2023-05-17T00:41:53.179Z,34.329
2023-05-17T00:56:55.145Z,33.877
2023-05-17T01:11:57.162Z,34.325
2023-05-17T01:26:59.433Z,35.023
2023-05-17T01:42:01.378Z,35.405
2023-05-17T01:57:03.345Z,36.091
2023-05-17T02:12:05.375Z,39.364
2023-05-17T02:27:07.425Z,38.289
2023-05-17T02:42:09.406Z,37.659
2023-05-17T02:57:11.606Z,37.932
2023-05-17T03:12:13.634Z,38.184
2023-05-17T03:27:15.649Z,42.256
2023-05-17T03:42:17.685Z,44.845
2023-05-17T03:57:19.694Z,47.814
2023-05-17T04:12:21.677Z,50.356
2023-05-17T04:27:23.733Z,51.981
2023-05-17T04:42:25.696Z,51.902
2023-05-17T04:57:27.816Z,51.247
2023-05-17T05:12:29.821Z,51.065
2023-05-17T05:27:31.831Z,51.735
2023-05-17T05:42:33.853Z,53.189
2023-05-17T05:57:36.070Z,53.124
2023-05-17T06:12:38.195Z,54.771
2023-05-17T06:27:40.161Z,55.415
2023-05-17T06:42:42.144Z,55.357
2023-05-17T06:57:44.184Z,52.228
2023-05-17T07:12:46.206Z,52.511
2023-05-17T07:27:48.181Z,56.648
2023-05-17T07:42:50.166Z,55.37
2023-05-17T07:57:52.272Z,56.692
2023-05-17T08:12:54.247Z,60.904
2023-05-17T08:27:56.239Z,60.594
2023-05-17T08:42:58.289Z,62.294
2023-05-17T08:58:00.323Z,65.887
2023-05-17T09:13:02.502Z,64.038
2023-05-17T09:28:04.545Z,57.191
2023-05-17T09:43:06.546Z,61.049
2023-05-17T09:58:08.552Z,60.91
2023-05-17T10:13:10.577Z,57.127
2023-05-17T10:28:12.615Z,58.267
2023-05-17T10:43:14.564Z,58.344
2023-05-17T10:58:16.702Z,58.827
2023-05-17T11:13:18.827Z,70.902
2023-05-17T11:28:20.876Z,60.561
2023-05-17T11:43:22.936Z,66.105
2023-05-17T11:58:24.938Z,67.38
2023-05-17T12:13:27.083Z,62.123
2023-05-17T12:28:29.183Z,68.365
2023-05-17T12:43:31.217Z,68.454
2023-05-17T12:58:33.219Z,66.809
2023-05-17T13:13:35.430Z,72.854
2023-05-17T13:28:37.458Z,69.263
2023-05-17T13:43:39.458Z,60.927
2023-05-17T13:58:41.441Z,62.717
2023-05-17T14:13:43.433Z,60.298
2023-05-17T14:28:45.433Z,60.622
2023-05-17T14:43:47.448Z,63.839
2023-05-17T14:58:49.474Z,63.777
2023-05-17T15:13:51.620Z,54.89
2023-05-17T15:28:53.639Z,55.444
2023-05-17T15:43:55.655Z,59.03
2023-05-17T15:58:57.625Z,56.639
2023-05-17T16:13:59.784Z,54.177
2023-05-17T16:29:01.808Z,53.344
2023-05-17T16:44:03.932Z,52.138
2023-05-17T16:59:05.967Z,51.655
2023-05-17T17:14:08.001Z,52.011
2023-05-17T17:29:10.131Z,50.294
2023-05-17T17:44:12.203Z,48.528
2023-05-17T17:59:14.219Z,45.889
2023-05-17T18:14:16.251Z,45.83
2023-05-17T18:29:18.270Z,42.883
2023-05-17T18:44:20.346Z,41.671
2023-05-17T18:59:22.458Z,42.547
2023-05-17T19:14:24.562Z,40.052
2023-05-17T19:29:26.576Z,40.975
2023-05-17T19:44:28.589Z,39.887
2023-05-17T19:59:30.553Z,36.611
2023-05-17T20:14:32.542Z,35.364
2023-05-17T20:29:34.512Z,36.076
2023-05-17T20:44:36.537Z,35.451
2023-05-17T20:59:38.496Z,34.824
2023-05-17T21:14:40.642Z,34.781
2023-05-17T21:29:42.712Z,31.597
2023-05-17T21:44:44.897Z,31.075
2023-05-17T21:59:46.926Z,32.069
2023-05-17T22:14:48.892Z,32.007
2023-05-17T22:29:50.904Z,31.512
2023-05-17T22:44:52.925Z,30.609
2023-05-17T22:59:54.986Z,30.077
2023-05-17T23:14:56.930Z,30.111
2023-05-17T23:29:59.314Z,29.854
2023-05-17T23:45:01.523Z,26.744
